createdAt,value
2022-07-29T00:01:58.966Z,57.64
2022-07-29T00:04:31.041Z,57.48
2022-07-29T00:07:04.263Z,57.71
2022-07-29T00:09:41.897Z,57.66
2022-07-29T00:12:26.461Z,57.70
2022-07-29T00:14:58.757Z,57.52
2022-07-29T00:17:30.712Z,57.64
2022-07-29T00:20:02.844Z,57.53
2022-07-29T00:22:38.503Z,57.80
2022-07-29T00:25:10.689Z,57.55
2022-07-29T00:27:42.561Z,57.45
2022-07-29T00:30:14.498Z,57.47
2022-07-29T00:32:46.422Z,57.54
2022-07-29T00:35:37.169Z,57.46
2022-07-29T00:38:09.014Z,57.85
2022-07-29T00:40:44.089Z,57.96
2022-07-29T00:43:16.830Z,57.90
2022-07-29T00:45:48.712Z,57.92
2022-07-29T00:48:20.574Z,57.81
2022-07-29T00:50:52.563Z,58.04
2022-07-29T00:53:25.950Z,57.93
2022-07-29T00:55:59.911Z,57.83
2022-07-29T00:58:32.354Z,57.87
2022-07-29T01:01:04.300Z,57.52
2022-07-29T01:03:36.244Z,57.96
2022-07-29T01:06:08.162Z,57.83
2022-07-29T01:08:41.068Z,57.61
2022-07-29T01:11:13.476Z,57.84
2022-07-29T01:13:47.036Z,58.04
2022-07-29T01:16:27.053Z,58.34
2022-07-29T01:19:08.978Z,58.60
2022-07-29T01:21:56.399Z,58.79
2022-07-29T01:24:56.214Z,58.69
2022-07-29T01:27:59.032Z,58.57
2022-07-29T01:30:31.940Z,58.13
2022-07-29T01:33:07.910Z,58.27
2022-07-29T01:35:41.544Z,58.41
2022-07-29T01:38:21.746Z,58.69
2022-07-29T01:40:57.411Z,58.47
2022-07-29T01:43:43.180Z,58.89
2022-07-29T01:46:21.416Z,58.77
2022-07-29T01:48:57.287Z,58.72
2022-07-29T01:51:42.643Z,59.20
2022-07-29T01:54:14.835Z,58.63
2022-07-29T01:56:50.170Z,58.86
2022-07-29T01:59:22.814Z,58.47
2022-07-29T02:01:56.047Z,58.68
2022-07-29T02:04:30.198Z,58.71
2022-07-29T02:07:06.363Z,58.73
2022-07-29T02:09:39.690Z,58.85
2022-07-29T02:12:12.852Z,59.13
2022-07-29T02:14:53.080Z,59.70
2022-07-29T02:17:28.427Z,59.09
2022-07-29T02:20:04.030Z,59.41
2022-07-29T02:22:38.646Z,59.29
2022-07-29T02:25:13.881Z,59.23
2022-07-29T02:27:48.404Z,59.41
2022-07-29T02:30:23.136Z,59.57
2022-07-29T02:32:58.865Z,59.19
2022-07-29T02:35:34.528Z,59.31
2022-07-29T02:38:25.841Z,59.68
2022-07-29T02:40:58.007Z,59.90
2022-07-29T02:43:31.770Z,59.94
2022-07-29T02:46:12.698Z,60.42
2022-07-29T02:49:20.484Z,61.08
2022-07-29T02:51:56.786Z,60.39
2022-07-29T02:54:32.813Z,60.07
2022-07-29T02:57:10.723Z,60.62
2022-07-29T02:59:44.369Z,60.35
2022-07-29T03:02:17.478Z,60.51
2022-07-29T03:04:51.556Z,60.55
2022-07-29T03:07:23.886Z,60.49
2022-07-29T03:09:56.733Z,60.78
2022-07-29T03:12:29.705Z,60.40
2022-07-29T03:15:02.332Z,60.50
2022-07-29T03:17:34.898Z,60.38
2022-07-29T03:20:08.598Z,61.00
2022-07-29T03:22:44.534Z,60.87
2022-07-29T03:25:19.264Z,60.55
2022-07-29T03:27:51.236Z,60.84
2022-07-29T03:30:23.694Z,60.56
2022-07-29T03:32:56.680Z,60.58
2022-07-29T03:35:32.605Z,60.50
2022-07-29T03:38:04.464Z,60.36
2022-07-29T03:40:43.630Z,60.95
2022-07-29T03:43:16.825Z,60.75
2022-07-29T03:45:52.036Z,60.70
2022-07-29T03:48:25.367Z,60.81
2022-07-29T03:50:57.510Z,60.48
2022-07-29T03:53:29.794Z,60.43
2022-07-29T03:56:22.856Z,61.40
2022-07-29T03:58:55.712Z,60.89
2022-07-29T04:01:29.184Z,60.77
2022-07-29T04:04:02.209Z,60.78
2022-07-29T04:06:40.944Z,61.23
2022-07-29T04:09:13.361Z,60.91
2022-07-29T04:12:00.715Z,60.97
2022-07-29T04:14:36.329Z,60.84
2022-07-29T04:17:08.837Z,60.65
2022-07-29T04:19:40.777Z,60.71
2022-07-29T04:22:12.701Z,60.90
2022-07-29T04:24:44.712Z,60.79
2022-07-29T04:27:16.644Z,60.63
2022-07-29T04:29:56.371Z,60.90
2022-07-29T04:32:29.401Z,60.64
2022-07-29T04:35:01.298Z,60.40
2022-07-29T04:37:33.147Z,60.33
2022-07-29T04:40:05.756Z,60.20
2022-07-29T04:42:46.451Z,60.05
2022-07-29T04:45:22.663Z,60.22
2022-07-29T04:47:55.912Z,60.55
2022-07-29T04:50:27.868Z,60.58
2022-07-29T04:52:59.749Z,60.10
2022-07-29T04:55:31.978Z,60.08
2022-07-29T04:58:03.854Z,60.17
2022-07-29T05:00:35.826Z,60.14
2022-07-29T05:03:09.787Z,59.97
2022-07-29T05:05:41.938Z,60.02
2022-07-29T05:08:14.002Z,59.85
2022-07-29T05:10:46.568Z,60.02
2022-07-29T05:13:18.608Z,59.96
2022-07-29T05:15:51.368Z,59.90
2022-07-29T05:18:26.197Z,59.71
2022-07-29T05:21:01.494Z,59.90
2022-07-29T05:23:33.909Z,59.52
2022-07-29T05:26:06.150Z,59.40
2022-07-29T05:28:38.687Z,59.66
2022-07-29T05:31:10.593Z,59.47
2022-07-29T05:33:43.086Z,59.70
2022-07-29T05:36:15.115Z,59.53
2022-07-29T05:38:47.011Z,59.57
2022-07-29T05:41:19.772Z,59.66
2022-07-29T05:43:51.843Z,59.83
2022-07-29T05:46:23.798Z,59.63
2022-07-29T05:48:55.735Z,59.72
2022-07-29T05:51:27.668Z,59.51
2022-07-29T05:53:59.586Z,59.52
2022-07-29T05:56:31.560Z,59.84
2022-07-29T05:59:04.197Z,59.68
2022-07-29T06:01:50.650Z,59.37
2022-07-29T06:04:23.089Z,59.26
2022-07-29T06:06:55.096Z,59.04
2022-07-29T06:09:27.082Z,59.14
2022-07-29T06:11:59.385Z,59.16
2022-07-29T06:14:31.404Z,58.90
2022-07-29T06:17:03.260Z,58.95
2022-07-29T06:19:36.349Z,58.96
2022-07-29T06:22:08.208Z,58.89
2022-07-29T06:24:42.519Z,58.63
2022-07-29T06:27:14.770Z,58.66
2022-07-29T06:29:46.666Z,58.66
2022-07-29T06:32:18.763Z,58.82
2022-07-29T06:35:11.875Z,58.58
2022-07-29T06:37:46.689Z,58.33
2022-07-29T06:40:39.524Z,58.68
2022-07-29T06:43:11.870Z,58.52
2022-07-29T06:45:44.325Z,58.42
2022-07-29T06:48:16.302Z,58.49
2022-07-29T06:50:48.285Z,58.32
2022-07-29T06:53:20.157Z,58.23
2022-07-29T06:55:52.483Z,58.37
2022-07-29T06:58:24.803Z,58.16
2022-07-29T07:01:05.221Z,58.21
2022-07-29T07:03:37.297Z,58.20
2022-07-29T07:06:14.630Z,58.17
2022-07-29T07:08:47.031Z,58.10
2022-07-29T07:11:19.056Z,58.08
2022-07-29T07:13:51.228Z,57.54
2022-07-29T07:16:23.619Z,57.36
2022-07-29T07:18:55.685Z,57.05
2022-07-29T07:21:30.301Z,56.80
2022-07-29T07:24:02.878Z,56.68
2022-07-29T07:26:34.905Z,56.68
2022-07-29T07:29:06.959Z,56.84
2022-07-29T07:31:39.169Z,56.94
2022-07-29T07:34:11.273Z,56.83
2022-07-29T07:36:43.102Z,56.80
2022-07-29T07:39:15.078Z,56.69
2022-07-29T07:41:47.302Z,56.93
2022-07-29T07:44:19.485Z,56.38
2022-07-29T07:46:51.524Z,56.39
2022-07-29T07:49:24.873Z,56.18
2022-07-29T07:51:57.314Z,56.14
2022-07-29T07:54:29.240Z,56.04
2022-07-29T07:57:01.569Z,55.76
2022-07-29T07:59:33.686Z,55.42
2022-07-29T08:02:06.314Z,54.96
2022-07-29T08:04:38.941Z,54.90
2022-07-29T08:07:10.953Z,54.61
2022-07-29T08:09:42.968Z,54.35
2022-07-29T08:12:14.932Z,54.12
2022-07-29T08:14:46.805Z,54.07
2022-07-29T08:17:18.781Z,53.82
2022-07-29T08:19:50.905Z,54.22
2022-07-29T08:22:22.935Z,53.92
2022-07-29T08:24:56.976Z,53.55
2022-07-29T08:27:43.540Z,53.65
2022-07-29T08:30:16.701Z,53.30
2022-07-29T08:32:54.060Z,53.28
2022-07-29T08:35:26.509Z,52.69
2022-07-29T08:37:59.278Z,52.48
2022-07-29T08:40:32.433Z,52.56
2022-07-29T08:43:09.290Z,52.38
2022-07-29T08:45:48.072Z,52.15
2022-07-29T08:48:22.432Z,51.84
2022-07-29T08:50:56.896Z,51.62
2022-07-29T08:53:30.349Z,51.24
2022-07-29T08:56:02.961Z,51.11
2022-07-29T08:58:36.915Z,51.20
2022-07-29T09:01:12.643Z,50.50
2022-07-29T09:03:47.280Z,50.41
2022-07-29T09:06:22.467Z,49.86
2022-07-29T09:08:57.162Z,50.17
2022-07-29T09:11:29.546Z,50.14
2022-07-29T09:14:01.908Z,49.89
2022-07-29T09:16:53.597Z,48.83
2022-07-29T09:19:28.908Z,49.06
2022-07-29T09:22:03.721Z,48.84
2022-07-29T09:24:36.136Z,48.76
2022-07-29T09:27:12.194Z,48.49
2022-07-29T09:29:44.356Z,48.05
2022-07-29T09:32:16.432Z,47.93
2022-07-29T09:34:48.694Z,47.40
2022-07-29T09:37:29.890Z,46.21
2022-07-29T09:40:12.963Z,46.04
2022-07-29T09:42:46.870Z,46.63
2022-07-29T09:45:33.298Z,45.61
2022-07-29T09:48:16.270Z,44.92
2022-07-29T09:50:51.967Z,45.54
2022-07-29T09:53:36.860Z,45.77
2022-07-29T09:56:09.241Z,45.69
2022-07-29T09:58:41.600Z,44.63
2022-07-29T10:01:13.598Z,44.14
2022-07-29T10:03:53.102Z,43.57
2022-07-29T10:06:25.118Z,44.35
2022-07-29T10:09:09.278Z,43.41
2022-07-29T10:11:49.319Z,43.80
2022-07-29T10:14:29.489Z,43.22
2022-07-29T10:17:04.692Z,43.55
2022-07-29T10:19:37.963Z,43.38
2022-07-29T10:22:11.086Z,43.95
2022-07-29T10:24:43.081Z,43.86
2022-07-29T10:27:15.117Z,43.53
2022-07-29T10:29:47.079Z,43.63
2022-07-29T10:32:30.832Z,44.30
2022-07-29T10:35:21.795Z,44.40
2022-07-29T10:38:08.083Z,43.46
2022-07-29T10:41:09.558Z,43.38
2022-07-29T10:43:44.411Z,43.31
2022-07-29T10:46:16.761Z,43.31
2022-07-29T10:49:15.436Z,42.06
2022-07-29T10:52:10.298Z,42.87
2022-07-29T10:54:54.693Z,42.55
2022-07-29T10:57:53.711Z,42.44
2022-07-29T11:00:27.700Z,41.91
2022-07-29T11:03:04.505Z,42.73
2022-07-29T11:05:59.924Z,40.66
2022-07-29T11:08:32.289Z,41.48
2022-07-29T11:14:55.731Z,40.75
2022-07-29T11:17:47.127Z,40.94
2022-07-29T11:20:50.878Z,39.91
2022-07-29T11:23:40.364Z,39.12
2022-07-29T11:26:26.107Z,40.02
2022-07-29T11:29:07.415Z,39.60
2022-07-29T11:31:43.920Z,39.28
2022-07-29T11:34:33.388Z,39.07
2022-07-29T11:37:13.665Z,38.81
2022-07-29T11:40:09.223Z,39.10
2022-07-29T11:42:46.335Z,38.71
2022-07-29T11:45:43.055Z,38.41
2022-07-29T11:48:31.920Z,37.48
2022-07-29T11:51:11.047Z,37.39
2022-07-29T11:56:45.657Z,36.88
2022-07-29T11:59:20.619Z,35.46
2022-07-29T12:02:18.521Z,33.72
2022-07-29T12:04:58.105Z,31.38
2022-07-29T12:07:02.299Z,36.73
2022-07-29T12:07:35.705Z,30.63
2022-07-29T12:10:11.648Z,29.90
2022-07-29T12:12:53.788Z,28.28
2022-07-29T12:15:45.698Z,26.82
2022-07-29T12:18:24.370Z,25.46
2022-07-29T12:21:03.265Z,23.49
2022-07-29T12:23:35.807Z,23.91
2022-07-29T12:26:11.019Z,23.73
2022-07-29T12:28:53.594Z,23.79
2022-07-29T12:31:43.757Z,23.18
2022-07-29T12:34:17.199Z,23.29
2022-07-29T12:36:49.369Z,22.57
2022-07-29T12:39:21.641Z,22.35
2022-07-29T12:42:04.631Z,22.09
2022-07-29T12:44:46.734Z,21.31
2022-07-29T12:47:19.439Z,21.93
2022-07-29T12:49:52.107Z,21.74
2022-07-29T12:52:25.480Z,21.09
2022-07-29T12:54:58.174Z,20.79
2022-07-29T12:57:30.238Z,20.49
2022-07-29T13:00:13.617Z,18.52
2022-07-29T13:02:56.110Z,19.12
2022-07-29T13:05:49.186Z,19.37
2022-07-29T13:08:22.284Z,19.50
2022-07-29T13:10:55.019Z,19.19
2022-07-29T13:13:26.880Z,18.63
2022-07-29T13:16:08.846Z,17.69
2022-07-29T13:18:42.213Z,17.91
2022-07-29T13:21:16.595Z,17.35
2022-07-29T13:23:50.818Z,17.83
2022-07-29T13:26:22.962Z,17.46
2022-07-29T13:28:55.974Z,17.47
2022-07-29T13:31:28.066Z,17.01
2022-07-29T13:34:00.053Z,17.24
2022-07-29T13:36:32.067Z,17.23
2022-07-29T13:39:04.423Z,17.65
2022-07-29T13:41:36.393Z,17.53
2022-07-29T13:44:09.028Z,18.41
2022-07-29T13:46:42.247Z,19.60
2022-07-29T13:49:14.203Z,20.28
2022-07-29T13:51:46.199Z,21.05
2022-07-29T13:54:18.434Z,21.45
2022-07-29T13:56:51.584Z,22.13
2022-07-29T13:59:23.999Z,23.13
2022-07-29T14:01:58.723Z,24.02
2022-07-29T14:04:31.153Z,24.70
2022-07-29T14:07:04.001Z,24.97
2022-07-29T14:09:41.051Z,25.44
2022-07-29T14:12:14.015Z,25.63
2022-07-29T14:14:47.294Z,26.11
2022-07-29T14:17:19.478Z,26.81
2022-07-29T14:19:51.443Z,27.52
2022-07-29T14:22:25.363Z,28.00
2022-07-29T14:24:57.543Z,28.74
2022-07-29T14:27:37.410Z,29.35
2022-07-29T14:30:11.148Z,29.81
2022-07-29T14:32:43.245Z,29.85
2022-07-29T14:35:15.585Z,30.18
2022-07-29T14:37:47.698Z,30.64
2022-07-29T14:40:19.662Z,30.83
2022-07-29T14:42:51.546Z,31.24
2022-07-29T14:45:23.794Z,30.89
2022-07-29T14:47:57.155Z,30.69
2022-07-29T14:50:31.891Z,29.76
2022-07-29T14:53:04.586Z,29.04
2022-07-29T14:55:36.657Z,27.88
2022-07-29T14:58:13.248Z,27.17
2022-07-29T15:00:48.259Z,26.78
2022-07-29T15:03:23.769Z,26.23
2022-07-29T15:05:56.449Z,26.59
2022-07-29T15:08:30.841Z,27.05
2022-07-29T15:11:02.872Z,27.36
2022-07-29T15:13:35.706Z,27.88
2022-07-29T15:16:08.474Z,28.48
2022-07-29T15:18:40.500Z,29.12
2022-07-29T15:21:12.708Z,29.27
2022-07-29T15:23:44.994Z,30.05
2022-07-29T15:26:17.083Z,30.17
2022-07-29T15:28:49.182Z,30.94
2022-07-29T15:31:21.405Z,31.46
2022-07-29T15:33:58.108Z,31.76
2022-07-29T15:39:23.590Z,32.90
2022-07-29T15:41:56.073Z,32.97
2022-07-29T15:44:28.544Z,33.14
2022-07-29T15:47:03.682Z,33.64
2022-07-29T15:49:46.439Z,34.16
2022-07-29T15:52:25.356Z,34.43
2022-07-29T15:54:58.437Z,34.61
2022-07-29T15:57:30.375Z,34.78
2022-07-29T16:00:02.889Z,34.93
2022-07-29T16:02:40.082Z,35.00
2022-07-29T16:05:11.961Z,34.99
2022-07-29T16:07:44.338Z,35.65
2022-07-29T16:10:16.393Z,36.13
2022-07-29T16:12:48.437Z,36.32
2022-07-29T16:15:20.528Z,37.09
2022-07-29T16:17:52.575Z,37.42
2022-07-29T16:20:24.496Z,37.79
2022-07-29T16:22:56.541Z,38.26
2022-07-29T16:25:50.311Z,38.61
2022-07-29T16:28:20.737Z,38.68
2022-07-29T16:30:52.844Z,38.97
2022-07-29T16:33:25.099Z,38.97
2022-07-29T16:35:57.263Z,38.79
2022-07-29T16:38:29.319Z,38.97
2022-07-29T16:41:01.384Z,39.11
2022-07-29T16:43:33.419Z,39.23
2022-07-29T16:46:09.011Z,39.74
2022-07-29T16:48:45.414Z,39.48
2022-07-29T16:51:17.560Z,39.74
2022-07-29T16:53:50.429Z,39.79
2022-07-29T16:56:22.499Z,39.83
2022-07-29T16:58:54.393Z,40.07
2022-07-29T17:01:26.529Z,40.21
2022-07-29T17:04:07.587Z,40.61
2022-07-29T17:06:40.834Z,40.92
2022-07-29T17:09:15.229Z,41.19
2022-07-29T17:11:54.920Z,41.66
2022-07-29T17:14:30.482Z,41.93
2022-07-29T17:17:03.145Z,42.04
2022-07-29T17:19:35.884Z,42.03
2022-07-29T17:22:14.036Z,42.21
2022-07-29T17:24:50.694Z,42.35
2022-07-29T17:27:22.855Z,42.47
2022-07-29T17:29:55.009Z,42.50
2022-07-29T17:32:27.069Z,43.10
2022-07-29T17:34:59.029Z,43.26
2022-07-29T17:37:31.184Z,43.37
2022-07-29T17:40:03.209Z,43.41
2022-07-29T17:42:35.081Z,43.78
2022-07-29T17:45:07.586Z,43.98
2022-07-29T17:47:39.511Z,44.07
2022-07-29T17:50:11.808Z,44.26
2022-07-29T17:52:43.744Z,44.14
2022-07-29T17:55:15.858Z,44.33
2022-07-29T17:57:47.710Z,44.11
2022-07-29T18:00:22.890Z,44.15
2022-07-29T18:02:55.051Z,44.10
2022-07-29T18:05:27.152Z,44.17
2022-07-29T18:07:59.275Z,44.22
2022-07-29T18:10:31.377Z,44.16
2022-07-29T18:13:04.963Z,44.26
2022-07-29T18:15:36.773Z,44.24
2022-07-29T18:18:09.141Z,44.16
2022-07-29T18:20:42.718Z,44.43
2022-07-29T18:23:14.981Z,44.38
2022-07-29T18:25:46.813Z,44.99
2022-07-29T18:28:19.215Z,45.13
2022-07-29T18:30:53.048Z,45.11
2022-07-29T18:33:25.283Z,45.45
2022-07-29T18:36:10.675Z,45.35
2022-07-29T18:38:43.952Z,45.31
2022-07-29T18:41:16.072Z,45.52
2022-07-29T18:43:48.187Z,45.81
2022-07-29T18:46:20.401Z,46.05
2022-07-29T18:48:53.502Z,46.05
2022-07-29T18:51:27.701Z,46.09
2022-07-29T18:53:59.742Z,46.63
2022-07-29T18:56:32.425Z,46.72
2022-07-29T18:59:04.624Z,46.84
2022-07-29T19:01:37.880Z,47.17
2022-07-29T19:04:10.153Z,47.31
2022-07-29T19:06:42.061Z,47.71
2022-07-29T19:09:14.146Z,47.71
2022-07-29T19:11:46.040Z,47.88
2022-07-29T19:14:18.000Z,48.11
2022-07-29T19:16:50.003Z,48.38
2022-07-29T19:19:21.983Z,48.50
2022-07-29T19:21:53.970Z,48.64
2022-07-29T19:24:25.934Z,48.92
2022-07-29T19:26:58.422Z,48.95
2022-07-29T19:29:32.277Z,49.06
2022-07-29T19:32:04.320Z,49.30
2022-07-29T19:34:36.668Z,49.33
2022-07-29T19:37:08.556Z,49.48
2022-07-29T19:39:40.797Z,49.68
2022-07-29T19:42:12.750Z,49.99
2022-07-29T19:44:44.844Z,50.18
2022-07-29T19:47:17.261Z,50.64
2022-07-29T19:49:49.613Z,50.64
2022-07-29T19:52:21.514Z,50.90
2022-07-29T19:54:53.571Z,50.92
2022-07-29T19:57:25.489Z,51.16
2022-07-29T19:59:58.573Z,51.34
2022-07-29T20:02:30.502Z,51.47
2022-07-29T20:05:03.121Z,51.61
2022-07-29T20:07:35.591Z,51.71
2022-07-29T20:10:08.425Z,51.80
2022-07-29T20:12:42.577Z,51.97
2022-07-29T20:15:16.321Z,52.04
2022-07-29T20:17:48.553Z,52.23
2022-07-29T20:20:22.390Z,52.57
2022-07-29T20:22:54.615Z,52.56
2022-07-29T20:25:27.448Z,52.80
2022-07-29T20:28:00.100Z,52.93
2022-07-29T20:30:32.348Z,53.04
2022-07-29T20:33:05.174Z,53.13
2022-07-29T20:35:37.559Z,53.30
2022-07-29T20:38:09.704Z,53.74
2022-07-29T20:40:42.139Z,53.59
2022-07-29T20:43:14.924Z,53.63
2022-07-29T20:45:48.607Z,53.96
2022-07-29T20:48:20.888Z,53.97
2022-07-29T20:50:55.003Z,54.11
2022-07-29T20:53:27.472Z,54.58
2022-07-29T20:56:00.034Z,54.51
2022-07-29T20:58:34.079Z,54.69
2022-07-29T21:01:07.355Z,54.76
2022-07-29T21:03:40.003Z,54.82
2022-07-29T21:06:12.530Z,55.16
2022-07-29T21:08:44.632Z,55.15
2022-07-29T21:11:17.127Z,55.26
2022-07-29T21:13:54.059Z,55.48
2022-07-29T21:16:28.914Z,55.65
2022-07-29T21:19:02.518Z,55.89
2022-07-29T21:21:34.945Z,55.99
2022-07-29T21:24:08.287Z,56.31
2022-07-29T21:26:50.743Z,56.43
2022-07-29T21:29:31.960Z,56.44
2022-07-29T21:32:04.602Z,56.59
2022-07-29T21:34:36.824Z,56.61
2022-07-29T21:37:09.155Z,56.83
2022-07-29T21:39:41.488Z,57.05
2022-07-29T21:42:13.861Z,57.23
2022-07-29T21:44:46.093Z,57.27
2022-07-29T21:47:18.924Z,57.36
2022-07-29T21:49:52.910Z,57.58
2022-07-29T21:52:25.215Z,57.57
2022-07-29T21:54:58.060Z,57.87
2022-07-29T21:57:30.320Z,58.03
2022-07-29T22:00:03.462Z,58.13
2022-07-29T22:02:45.275Z,58.13
2022-07-29T22:05:17.587Z,58.66
2022-07-29T22:07:54.277Z,58.57
2022-07-29T22:10:30.944Z,58.98
2022-07-29T22:13:03.507Z,58.89
2022-07-29T22:15:35.810Z,59.27
2022-07-29T22:18:08.037Z,59.49
2022-07-29T22:20:42.518Z,59.63
2022-07-29T22:23:15.000Z,59.73
2022-07-29T22:25:47.357Z,59.90
2022-07-29T22:28:19.670Z,60.01
2022-07-29T22:30:52.013Z,59.97
2022-07-29T22:33:24.258Z,60.01
2022-07-29T22:35:56.415Z,60.06
2022-07-29T22:38:29.315Z,60.30
2022-07-29T22:41:01.716Z,60.27
2022-07-29T22:43:35.898Z,60.43
2022-07-29T22:46:09.936Z,60.60
2022-07-29T22:48:42.644Z,60.69
2022-07-29T22:51:14.989Z,60.75
2022-07-29T22:53:47.351Z,60.93
2022-07-29T22:56:20.827Z,61.09
2022-07-29T22:58:55.586Z,61.01
2022-07-29T23:01:37.301Z,61.04
2022-07-29T23:04:10.567Z,61.31
2022-07-29T23:06:42.799Z,61.32
2022-07-29T23:09:15.331Z,61.74
2022-07-29T23:11:47.659Z,61.86
2022-07-29T23:14:19.894Z,61.93
2022-07-29T23:16:52.153Z,61.96
2022-07-29T23:19:24.428Z,62.09
2022-07-29T23:21:56.754Z,62.34
2022-07-29T23:24:29.126Z,62.54
2022-07-29T23:27:01.795Z,62.64
2022-07-29T23:29:36.780Z,62.74
2022-07-29T23:32:09.397Z,62.77
2022-07-29T23:34:41.571Z,62.81
2022-07-29T23:37:14.116Z,62.98
2022-07-29T23:39:46.428Z,62.89
2022-07-29T23:42:18.700Z,63.14
2022-07-29T23:44:50.921Z,63.27
2022-07-29T23:47:23.226Z,63.36
2022-07-29T23:49:56.181Z,63.46
2022-07-29T23:52:28.503Z,63.42
2022-07-29T23:55:37.157Z,63.59
2022-07-29T23:57:53.635Z,63.85
